Midnight Wolf — HO7969 — position and weather

sailwx.info

Track history (hours):
 
Tides and Currents Weather Stations Pressure Air Temp Water Temp Dewpoint Dewpoint Depression Visibility Wind Speed Wind Dir Waves Ship Positions

Midnight Wolf

Last reported at 2017-Jan-15 11:31 UTC. Time now 2017-May-24 02:18 UTC.
Position N 18°18' W 064°54'.
Warning: this ship's position is months out of date.

Length 51 m; draft 4 m.

Type: Cargo ship. MMSI: 351880000.

Date/timePositionNaut miles runAvg speedWind from/ knotsBaromVisibWave heightAir tempDewpointWater temp
2017-Jan-15 11:31N 18°18' W 064°54'9 9.2
2017-Jan-15 10:33N 18°17' W 064°45'8 8.3
2017-Jan-15 09:33N 18°22' W 064°38'3 0.1
2017-Jan-13 22:27N 18°25' W 064°36'9 9.9
2017-Jan-13 21:33N 18°18' W 064°42'10 9.9
2017-Jan-13 20:33N 18°17' W 064°52'0 0.1
2017-Jan-13 16:19N 18°17' W 064°53'7 9.1
2017-Jan-13 15:33N 18°17' W 064°45'8 8.3
2017-Jan-13 14:33N 18°22' W 064°38'4 0.2
2017-Jan-12 22:32N 18°24' W 064°36'0 0.3
2017-Jan-12 21:33N 18°24' W 064°35'0 0.0
2017-Jan-12 20:33N 18°24' W 064°35'0 0.0
2017-Jan-12 19:33N 18°24' W 064°35'3 3.0
2017-Jan-12 18:33N 18°22' W 064°33'236 6.9
2017-Jan-11 08:27N 15°36' W 061°37'8 9.4
2017-Jan-11 07:33N 15°43' W 061°42'40 9.1
2017-Jan-11 03:11N 16°16' W 062°05'5 8.4
2017-Jan-11 02:33N 16°20' W 062°09'8 8.1
2017-Jan-11 01:33N 16°27' W 062°13'8 7.8
2017-Jan-11 00:33N 16°34' W 062°15'9 8.7
2017-Jan-10 23:33N 16°43' W 062°16'6 6.3
2017-Jan-10 22:33N 16°48' W 062°12'0 0.0
2017-Jan-10 21:33N 16°48' W 062°12'0 0.0
2017-Jan-10 20:33N 16°48' W 062°12'1 0.7
2017-Jan-10 19:33N 16°48' W 062°13'12 9.2
2017-Jan-10 18:18N 16°54' W 062°24'64 3.3
2017-Jan-09 23:04N 17°39' W 063°12'89 9.3
2017-Jan-09 13:33N 18°22' W 064°33'4 1.2
2017-Jan-09 10:26N 18°25' W 064°36'7 8.3
2017-Jan-09 09:31N 18°18' W 064°40'9 8.8
2017-Jan-09 08:33N 18°17' W 064°49'4 0.2
2017-Jan-08 11:10N 18°17' W 064°53'6 9.3
2017-Jan-08 10:32N 18°17' W 064°47'9 8.5
2017-Jan-08 09:32N 18°21' W 064°39'5 0.1
2017-Jan-06 18:29N 18°26' W 064°37'0 0.0
2017-Jan-06 14:22N 18°26' W 064°37'1 0.0
2017-Jan-05 21:20N 18°25' W 064°36'  
Track history (hours):
 
Tides and Currents Weather Stations Pressure Air Temp Water Temp Dewpoint Dewpoint Depression Visibility Wind Speed Wind Dir Waves Ship Positions

Midnight Wolf

Last reported at 2017-Jan-15 11:31 UTC. Time now 2017-May-24 02:18 UTC.
Position N 18°18' W 064°54'.
Warning: this ship's position is months out of date.

Length 51 m; draft 4 m.

Type: Cargo ship. MMSI: 351880000.

Date/timePositionNaut miles runAvg speedWind from/ knotsBaromVisibWave heightAir tempDewpointWater temp
2017-Jan-15 11:31N 18°18' W 064°54'9 9.2
2017-Jan-15 10:33N 18°17' W 064°45'8 8.3
2017-Jan-15 09:33N 18°22' W 064°38'3 0.1
2017-Jan-13 22:27N 18°25' W 064°36'9 9.9
2017-Jan-13 21:33N 18°18' W 064°42'10 9.9
2017-Jan-13 20:33N 18°17' W 064°52'0 0.1
2017-Jan-13 16:19N 18°17' W 064°53'7 9.1
2017-Jan-13 15:33N 18°17' W 064°45'8 8.3
2017-Jan-13 14:33N 18°22' W 064°38'4 0.2
2017-Jan-12 22:32N 18°24' W 064°36'0 0.3
2017-Jan-12 21:33N 18°24' W 064°35'0 0.0
2017-Jan-12 20:33N 18°24' W 064°35'0 0.0
2017-Jan-12 19:33N 18°24' W 064°35'3 3.0
2017-Jan-12 18:33N 18°22' W 064°33'236 6.9
2017-Jan-11 08:27N 15°36' W 061°37'8 9.4
2017-Jan-11 07:33N 15°43' W 061°42'40 9.1
2017-Jan-11 03:11N 16°16' W 062°05'5 8.4
2017-Jan-11 02:33N 16°20' W 062°09'8 8.1
2017-Jan-11 01:33N 16°27' W 062°13'8 7.8
2017-Jan-11 00:33N 16°34' W 062°15'9 8.7
2017-Jan-10 23:33N 16°43' W 062°16'6 6.3
2017-Jan-10 22:33N 16°48' W 062°12'0 0.0
2017-Jan-10 21:33N 16°48' W 062°12'0 0.0
2017-Jan-10 20:33N 16°48' W 062°12'1 0.7
2017-Jan-10 19:33N 16°48' W 062°13'12 9.2
2017-Jan-10 18:18N 16°54' W 062°24'64 3.3
2017-Jan-09 23:04N 17°39' W 063°12'89 9.3
2017-Jan-09 13:33N 18°22' W 064°33'4 1.2
2017-Jan-09 10:26N 18°25' W 064°36'7 8.3
2017-Jan-09 09:31N 18°18' W 064°40'9 8.8
2017-Jan-09 08:33N 18°17' W 064°49'4 0.2
2017-Jan-08 11:10N 18°17' W 064°53'6 9.3
2017-Jan-08 10:32N 18°17' W 064°47'9 8.5
2017-Jan-08 09:32N 18°21' W 064°39'5 0.1
2017-Jan-06 18:29N 18°26' W 064°37'0 0.0
2017-Jan-06 14:22N 18°26' W 064°37'1 0.0
2017-Jan-05 21:20N 18°25' W 064°36'  

Dump ship's entire track history